createdAt,value
2018-12-10T00:00:11.553Z,7.00
2018-12-10T00:02:37.833Z,7.00
2018-12-10T00:05:05.101Z,6.90
2018-12-10T00:07:31.338Z,6.90
2018-12-10T00:09:57.603Z,7.00
2018-12-10T00:12:23.843Z,6.90
2018-12-10T00:14:50.090Z,6.90
2018-12-10T00:17:16.362Z,6.80
2018-12-10T00:19:42.601Z,6.70
2018-12-10T00:22:08.859Z,6.70
2018-12-10T00:24:35.103Z,6.60
2018-12-10T00:27:01.377Z,6.50
2018-12-10T00:29:27.625Z,6.50
2018-12-10T00:31:53.794Z,6.50
2018-12-10T00:34:20.039Z,6.50
2018-12-10T00:36:46.303Z,6.60
2018-12-10T00:39:12.547Z,6.50
2018-12-10T00:41:38.805Z,6.60
2018-12-10T00:44:05.169Z,6.50
2018-12-10T00:46:31.438Z,6.50
2018-12-10T00:48:57.743Z,6.40
2018-12-10T00:51:24.053Z,6.40
2018-12-10T00:53:50.311Z,6.30
2018-12-10T00:56:16.550Z,6.40
2018-12-10T00:58:42.800Z,6.30
2018-12-10T01:01:09.047Z,6.30
2018-12-10T01:03:35.298Z,6.20
2018-12-10T01:06:01.645Z,6.20
2018-12-10T01:08:27.905Z,6.20
2018-12-10T01:10:54.151Z,6.20
2018-12-10T01:13:20.397Z,6.20
2018-12-10T01:15:46.640Z,6.20
2018-12-10T01:18:12.893Z,6.30
2018-12-10T01:20:39.137Z,6.30
2018-12-10T01:23:05.402Z,6.30
2018-12-10T01:25:31.741Z,6.40
2018-12-10T01:27:57.989Z,6.40
2018-12-10T01:30:24.257Z,6.40
2018-12-10T01:32:50.534Z,6.30
2018-12-10T01:35:16.778Z,6.30
2018-12-10T01:37:43.062Z,6.30
2018-12-10T01:40:09.351Z,6.20
2018-12-10T01:42:35.599Z,6.20
2018-12-10T01:45:02.316Z,6.20
2018-12-10T01:47:28.517Z,6.20
2018-12-10T01:49:54.771Z,6.20
2018-12-10T01:52:21.016Z,6.30
2018-12-10T01:54:47.274Z,6.20
2018-12-10T01:57:13.535Z,6.30
2018-12-10T01:59:39.781Z,6.30
2018-12-10T02:02:06.169Z,6.20
2018-12-10T02:04:32.426Z,6.20
2018-12-10T02:06:58.671Z,6.20
2018-12-10T02:09:24.921Z,6.20
2018-12-10T02:11:51.169Z,6.20
2018-12-10T02:14:17.446Z,6.20
2018-12-10T02:16:43.782Z,6.20
2018-12-10T02:19:10.181Z,6.20
2018-12-10T02:21:36.578Z,6.20
2018-12-10T02:24:02.953Z,6.20
2018-12-10T02:26:29.209Z,6.20
2018-12-10T02:29:01.593Z,6.10
2018-12-10T02:31:27.855Z,6.00
2018-12-10T02:33:54.123Z,6.00
2018-12-10T02:36:20.506Z,5.90
2018-12-10T02:38:46.747Z,5.90
2018-12-10T02:41:12.996Z,5.90
2018-12-10T02:43:39.153Z,5.90
2018-12-10T02:46:05.657Z,5.90
2018-12-10T02:48:32.118Z,5.90
2018-12-10T02:50:58.653Z,6.00
2018-12-10T02:53:24.889Z,6.00
2018-12-10T02:55:51.283Z,6.00
2018-12-10T02:58:17.673Z,6.00
2018-12-10T03:00:43.948Z,6.00
2018-12-10T03:03:10.198Z,6.00
2018-12-10T03:05:36.475Z,5.90
2018-12-10T03:08:02.850Z,6.00
2018-12-10T03:10:29.005Z,6.00
2018-12-10T03:12:55.271Z,6.10
2018-12-10T03:15:21.638Z,6.00
2018-12-10T03:17:47.898Z,6.00
2018-12-10T03:20:14.269Z,6.00
2018-12-10T03:22:40.585Z,6.10
2018-12-10T03:25:07.190Z,6.00
2018-12-10T03:27:33.343Z,6.00
2018-12-10T03:29:59.609Z,6.00
2018-12-10T03:32:25.876Z,5.90
2018-12-10T03:34:52.233Z,5.90
2018-12-10T03:37:18.507Z,5.80
2018-12-10T03:39:44.761Z,5.80
2018-12-10T03:42:11.034Z,5.90
2018-12-10T03:44:37.271Z,5.90
2018-12-10T03:47:03.565Z,5.90
2018-12-10T03:49:29.818Z,5.80
2018-12-10T03:51:56.130Z,5.80
2018-12-10T03:54:22.369Z,5.80
2018-12-10T03:56:48.655Z,5.80
2018-12-10T03:59:14.918Z,5.80
2018-12-10T04:01:41.190Z,5.90
2018-12-10T04:04:07.425Z,5.80
2018-12-10T04:06:33.703Z,5.90
2018-12-10T04:08:59.952Z,5.80
2018-12-10T04:11:26.217Z,5.80
2018-12-10T04:13:52.453Z,5.80
2018-12-10T04:16:18.842Z,5.80
2018-12-10T04:18:45.098Z,5.80
2018-12-10T04:21:11.381Z,5.80
2018-12-10T04:23:37.627Z,5.80
2018-12-10T04:26:03.928Z,5.80
2018-12-10T04:28:30.360Z,5.80
2018-12-10T04:30:56.607Z,5.80
2018-12-10T04:33:22.878Z,5.80
2018-12-10T04:35:49.206Z,5.80
2018-12-10T04:38:15.497Z,5.80
2018-12-10T04:40:41.746Z,5.80
2018-12-10T04:43:08.005Z,5.80
2018-12-10T04:45:34.249Z,5.80
2018-12-10T04:48:00.524Z,5.60
2018-12-10T04:50:26.775Z,5.70
2018-12-10T04:52:53.046Z,5.70
2018-12-10T04:55:19.295Z,5.70
2018-12-10T04:57:45.565Z,5.60
2018-12-10T05:00:11.826Z,5.60
2018-12-10T05:02:38.159Z,5.60
2018-12-10T05:05:04.730Z,5.60
2018-12-10T05:07:31.001Z,5.60
2018-12-10T05:09:57.240Z,5.60
2018-12-10T05:12:23.594Z,5.50
2018-12-10T05:14:49.841Z,5.60
2018-12-10T05:17:16.101Z,5.60
2018-12-10T05:19:42.353Z,5.60
2018-12-10T05:22:08.621Z,5.60
2018-12-10T05:24:35.018Z,5.60
2018-12-10T05:27:01.372Z,5.60
2018-12-10T05:29:27.745Z,5.60
2018-12-10T05:31:53.983Z,5.50
2018-12-10T05:34:21.016Z,5.50
2018-12-10T05:36:47.265Z,5.50
2018-12-10T05:39:13.525Z,5.50
2018-12-10T05:41:39.774Z,5.50
2018-12-10T05:44:06.039Z,5.40
2018-12-10T05:46:32.401Z,5.50
2018-12-10T05:48:58.690Z,5.40
2018-12-10T05:51:24.936Z,5.40
2018-12-10T05:53:51.192Z,5.30
2018-12-10T05:56:17.433Z,5.30
2018-12-10T05:58:43.706Z,5.30
2018-12-10T06:01:10.014Z,5.30
2018-12-10T06:03:36.269Z,5.30
2018-12-10T06:06:02.522Z,5.30
2018-12-10T06:08:28.779Z,5.30
2018-12-10T06:10:55.026Z,5.30
2018-12-10T06:13:21.297Z,5.30
2018-12-10T06:15:47.661Z,5.30
2018-12-10T06:18:14.065Z,5.30
2018-12-10T06:20:40.306Z,5.40
2018-12-10T06:23:06.565Z,5.30
2018-12-10T06:25:32.820Z,5.30
2018-12-10T06:27:59.083Z,5.30
2018-12-10T06:30:25.439Z,5.30
2018-12-10T06:32:51.793Z,5.30
2018-12-10T06:35:18.033Z,5.30
2018-12-10T06:37:44.422Z,5.40
2018-12-10T06:40:10.689Z,5.30
2018-12-10T06:42:36.938Z,5.30
2018-12-10T06:45:04.236Z,5.30
2018-12-10T06:47:30.501Z,5.30
2018-12-10T06:49:56.753Z,5.30
2018-12-10T06:52:23.001Z,5.30
2018-12-10T06:54:49.328Z,5.30
2018-12-10T06:57:15.754Z,5.30
2018-12-10T06:59:42.011Z,5.40
2018-12-10T07:02:08.486Z,5.40
2018-12-10T07:04:34.648Z,5.40
2018-12-10T07:07:00.906Z,5.30
2018-12-10T07:09:27.170Z,5.30
2018-12-10T07:11:53.401Z,5.30
2018-12-10T07:14:19.773Z,5.30
2018-12-10T07:16:46.104Z,5.30
2018-12-10T07:19:12.437Z,5.30
2018-12-10T07:21:38.748Z,5.30
2018-12-10T07:24:05.009Z,5.30
2018-12-10T07:26:31.305Z,5.40
2018-12-10T07:28:57.578Z,5.30
2018-12-10T07:34:16.409Z,5.30
2018-12-10T07:36:42.601Z,5.40
2018-12-10T07:39:08.864Z,5.30
2018-12-10T07:41:35.118Z,5.30
2018-12-10T07:44:01.598Z,5.30
2018-12-10T07:46:27.856Z,5.30
2018-12-10T07:48:54.138Z,5.20
2018-12-10T07:51:20.379Z,5.20
2018-12-10T07:53:49.489Z,5.20
2018-12-10T07:56:15.742Z,5.30
2018-12-10T07:58:41.993Z,5.40
2018-12-10T08:01:08.253Z,5.40
2018-12-10T08:03:34.494Z,5.40
2018-12-10T08:06:00.765Z,5.40
2018-12-10T08:08:27.026Z,5.40
2018-12-10T08:10:53.290Z,5.50
2018-12-10T08:13:19.558Z,5.50
2018-12-10T08:15:45.826Z,5.50
2018-12-10T08:18:12.078Z,5.50
2018-12-10T08:20:38.345Z,5.50
2018-12-10T08:23:04.614Z,5.40
2018-12-10T08:25:30.887Z,5.40
2018-12-10T08:27:57.379Z,5.40
2018-12-10T08:30:23.653Z,5.40
2018-12-10T08:32:49.902Z,5.40
2018-12-10T08:35:16.187Z,5.50
2018-12-10T08:37:42.429Z,5.50
2018-12-10T08:40:08.722Z,5.60
2018-12-10T08:42:34.988Z,5.60
2018-12-10T08:45:01.250Z,5.70
2018-12-10T08:47:27.529Z,5.70
2018-12-10T08:49:53.869Z,5.70
2018-12-10T08:52:20.201Z,5.80
2018-12-10T08:54:46.498Z,5.80
2018-12-10T08:57:12.911Z,5.80
2018-12-10T08:59:39.343Z,5.80
2018-12-10T09:02:05.617Z,5.70
2018-12-10T09:04:31.867Z,5.60
2018-12-10T09:06:58.132Z,5.70
2018-12-10T09:09:24.382Z,5.70
2018-12-10T09:11:50.645Z,5.70
2018-12-10T09:14:16.894Z,5.70
2018-12-10T09:16:50.125Z,5.70
2018-12-10T09:19:16.410Z,5.80
2018-12-10T09:21:42.749Z,5.80
2018-12-10T09:24:09.042Z,5.80
2018-12-10T09:26:35.305Z,5.90
2018-12-10T09:29:01.697Z,5.90
2018-12-10T09:31:28.056Z,5.90
2018-12-10T09:33:54.368Z,6.00
2018-12-10T09:36:20.630Z,6.00
2018-12-10T09:38:47.013Z,6.10
2018-12-10T09:41:13.486Z,6.10
2018-12-10T09:43:39.809Z,6.10
2018-12-10T09:46:06.054Z,6.30
2018-12-10T09:48:32.333Z,6.30
2018-12-10T09:50:58.587Z,6.30
2018-12-10T09:53:24.873Z,6.30
2018-12-10T09:55:51.129Z,6.30
2018-12-10T09:58:17.515Z,6.20
2018-12-10T10:00:43.769Z,6.00
2018-12-10T10:03:10.037Z,6.00
2018-12-10T10:05:36.285Z,6.00
2018-12-10T10:08:02.885Z,5.90
2018-12-10T10:10:29.137Z,5.90
2018-12-10T10:12:55.402Z,5.90
2018-12-10T10:15:21.661Z,6.00
2018-12-10T10:17:47.934Z,6.00
2018-12-10T10:20:14.297Z,6.10
2018-12-10T10:22:40.677Z,6.20
2018-12-10T10:25:06.928Z,6.20
2018-12-10T10:27:33.384Z,6.50
2018-12-10T10:29:59.621Z,6.60
2018-12-10T10:32:25.890Z,6.70
2018-12-10T10:34:52.146Z,6.70
2018-12-10T10:37:18.397Z,6.80
2018-12-10T10:39:44.686Z,6.70
2018-12-10T10:42:11.167Z,6.60
2018-12-10T10:44:37.421Z,6.60
2018-12-10T10:47:03.782Z,6.60
2018-12-10T10:49:30.149Z,6.50
2018-12-10T10:51:56.434Z,6.30
2018-12-10T10:54:22.689Z,6.20
2018-12-10T10:56:49.001Z,6.20
2018-12-10T10:59:15.273Z,6.30
2018-12-10T11:01:47.450Z,6.20
2018-12-10T11:04:13.709Z,6.20
2018-12-10T11:06:39.962Z,6.30
2018-12-10T11:09:06.346Z,6.30
2018-12-10T11:11:32.594Z,6.30
2018-12-10T11:13:59.597Z,6.30
2018-12-10T11:16:25.984Z,6.30
2018-12-10T11:18:52.721Z,6.30
2018-12-10T11:21:18.975Z,6.40
2018-12-10T11:23:45.246Z,6.50
2018-12-10T11:26:11.501Z,6.60
2018-12-10T11:28:37.749Z,6.80
2018-12-10T11:31:04.030Z,6.90
2018-12-10T11:33:30.281Z,7.00
2018-12-10T11:35:56.566Z,7.00
2018-12-10T11:38:22.812Z,7.00
2018-12-10T11:40:49.097Z,6.90
2018-12-10T11:43:15.350Z,7.00
2018-12-10T11:45:41.620Z,7.10
2018-12-10T11:48:07.889Z,7.10
2018-12-10T11:50:34.169Z,7.00
2018-12-10T11:53:00.416Z,7.00
2018-12-10T11:55:26.696Z,7.00
2018-12-10T11:57:52.958Z,7.20
2018-12-10T12:00:19.217Z,7.30
2018-12-10T12:02:45.473Z,7.40
2018-12-10T12:05:11.773Z,7.50
2018-12-10T12:07:38.017Z,7.50
2018-12-10T12:10:05.317Z,7.40
2018-12-10T12:12:31.562Z,7.40
2018-12-10T12:14:57.838Z,7.40
2018-12-10T12:17:24.102Z,7.40
2018-12-10T12:19:50.354Z,7.50
2018-12-10T12:22:16.646Z,7.50
2018-12-10T12:24:42.893Z,7.40
2018-12-10T12:27:09.154Z,7.30
2018-12-10T12:29:35.398Z,7.10
2018-12-10T12:32:01.911Z,7.00
2018-12-10T12:34:28.545Z,7.00
2018-12-10T12:36:54.949Z,6.90
2018-12-10T12:39:21.185Z,6.90
2018-12-10T12:41:47.448Z,6.80
2018-12-10T12:44:13.712Z,6.80
2018-12-10T12:46:39.990Z,6.70
2018-12-10T12:49:06.261Z,6.50
2018-12-10T12:51:32.497Z,6.20
2018-12-10T12:53:58.762Z,6.00
2018-12-10T12:56:25.125Z,5.80
2018-12-10T12:58:51.310Z,5.70
2018-12-10T13:01:17.557Z,5.60
2018-12-10T13:03:43.818Z,5.70
2018-12-10T13:06:10.085Z,5.90
2018-12-10T13:08:36.353Z,6.00
2018-12-10T13:11:02.660Z,6.00
2018-12-10T13:13:28.921Z,6.10
2018-12-10T13:15:55.190Z,6.20
2018-12-10T13:18:21.438Z,6.20
2018-12-10T13:20:47.835Z,6.20
2018-12-10T13:23:14.273Z,6.20
2018-12-10T13:25:40.539Z,6.20
2018-12-10T13:28:06.789Z,6.10
2018-12-10T13:30:33.144Z,6.10
2018-12-10T13:32:59.634Z,6.10
2018-12-10T13:35:25.914Z,5.90
2018-12-10T13:37:52.169Z,5.80
2018-12-10T13:40:18.479Z,5.80
2018-12-10T13:42:44.745Z,5.80
2018-12-10T13:45:11.130Z,5.70
2018-12-10T13:47:37.414Z,5.60
2018-12-10T13:50:04.902Z,5.60
2018-12-10T13:52:31.281Z,5.60
2018-12-10T13:54:57.711Z,5.50
2018-12-10T13:57:23.898Z,5.50
2018-12-10T13:59:50.062Z,5.50
2018-12-10T14:02:16.346Z,5.50
2018-12-10T14:04:44.233Z,5.50
2018-12-10T14:07:10.564Z,5.60
2018-12-10T14:09:37.767Z,5.60
2018-12-10T14:12:04.258Z,5.60
2018-12-10T14:14:30.553Z,5.60
2018-12-10T14:16:56.837Z,5.60
2018-12-10T14:19:23.129Z,5.60
2018-12-10T14:21:49.417Z,5.60
2018-12-10T14:24:15.782Z,5.50
2018-12-10T14:26:42.114Z,5.50
2018-12-10T14:29:08.372Z,5.40
2018-12-10T14:31:34.705Z,5.50
2018-12-10T14:34:07.238Z,5.30
2018-12-10T14:36:33.614Z,5.40
2018-12-10T14:39:00.007Z,5.40
2018-12-10T14:41:26.282Z,5.40
2018-12-10T14:43:52.629Z,5.40
2018-12-10T14:46:18.794Z,5.50
2018-12-10T14:48:45.226Z,5.50
2018-12-10T14:51:11.541Z,5.50
2018-12-10T14:53:37.810Z,5.50
2018-12-10T14:56:04.061Z,5.50
2018-12-10T14:58:30.321Z,5.50
2018-12-10T15:00:56.569Z,5.50
2018-12-10T15:03:23.068Z,5.50
2018-12-10T15:05:49.313Z,5.60
2018-12-10T15:08:15.574Z,5.60
2018-12-10T15:10:41.837Z,5.60
2018-12-10T15:13:08.101Z,5.60
2018-12-10T15:15:34.470Z,5.60
2018-12-10T15:18:01.114Z,5.70
2018-12-10T15:20:27.365Z,5.70
2018-12-10T15:22:53.617Z,5.70
2018-12-10T15:25:19.872Z,5.60
2018-12-10T15:27:46.133Z,5.60
2018-12-10T15:30:12.368Z,5.60
2018-12-10T15:32:38.657Z,5.60
2018-12-10T15:35:05.364Z,5.70
2018-12-10T15:37:31.731Z,5.70
2018-12-10T15:39:57.997Z,5.70
2018-12-10T15:42:24.262Z,5.70
2018-12-10T15:44:50.526Z,5.70
2018-12-10T15:47:16.785Z,5.60
2018-12-10T15:49:43.068Z,5.60
2018-12-10T15:52:09.337Z,5.50
2018-12-10T15:54:35.597Z,5.50
2018-12-10T15:57:01.858Z,5.50
2018-12-10T15:59:28.117Z,5.50
2018-12-10T16:01:54.382Z,5.40
2018-12-10T16:04:20.649Z,5.50
2018-12-10T16:06:47.076Z,5.50
2018-12-10T16:09:13.510Z,5.50
2018-12-10T16:11:39.761Z,5.50
2018-12-10T16:14:06.146Z,5.60
2018-12-10T16:16:32.329Z,5.50
2018-12-10T16:18:58.686Z,5.60
2018-12-10T16:21:24.966Z,5.60
2018-12-10T16:23:51.254Z,5.60
2018-12-10T16:26:17.534Z,5.40
2018-12-10T16:28:50.750Z,5.40
2018-12-10T16:31:17.013Z,5.20
2018-12-10T16:33:43.277Z,5.00
2018-12-10T16:36:10.289Z,4.90
2018-12-10T16:38:36.470Z,4.80
2018-12-10T16:41:02.777Z,4.80
2018-12-10T16:43:29.029Z,4.80
2018-12-10T16:45:55.218Z,4.80
2018-12-10T16:48:21.473Z,4.80
2018-12-10T16:50:47.943Z,4.80
2018-12-10T16:53:14.312Z,4.90
2018-12-10T16:55:40.606Z,4.90
2018-12-10T16:58:06.870Z,4.90
2018-12-10T17:00:33.165Z,5.00
2018-12-10T17:02:59.408Z,5.00
2018-12-10T17:05:27.621Z,5.00
2018-12-10T17:07:53.997Z,5.00
2018-12-10T17:10:20.273Z,5.00
2018-12-10T17:12:46.562Z,5.00
2018-12-10T17:15:12.934Z,5.00
2018-12-10T17:17:39.261Z,5.00
2018-12-10T17:20:10.565Z,5.10
2018-12-10T17:22:36.842Z,5.10
2018-12-10T17:25:04.929Z,5.10
2018-12-10T17:27:31.200Z,5.10
2018-12-10T17:29:57.444Z,5.10
2018-12-10T17:32:23.813Z,5.10
2018-12-10T17:34:50.056Z,5.10
2018-12-10T17:37:16.330Z,5.00
2018-12-10T17:39:42.662Z,5.00
2018-12-10T17:42:08.934Z,5.00
2018-12-10T17:44:35.182Z,5.00
2018-12-10T17:47:01.453Z,5.00
2018-12-10T17:49:27.953Z,5.00
2018-12-10T17:51:54.229Z,5.00
2018-12-10T17:54:20.405Z,5.00
2018-12-10T17:56:46.792Z,5.00
2018-12-10T17:59:13.293Z,5.00
2018-12-10T18:01:39.609Z,5.00
2018-12-10T18:04:05.890Z,5.00
2018-12-10T18:06:32.257Z,5.00
2018-12-10T18:08:58.525Z,5.00
2018-12-10T18:11:31.785Z,5.00
2018-12-10T18:13:58.065Z,5.10
2018-12-10T18:16:24.321Z,5.10
2018-12-10T18:18:50.711Z,5.10
2018-12-10T18:21:16.988Z,5.00
2018-12-10T18:23:43.161Z,5.00
2018-12-10T18:26:09.445Z,5.00
2018-12-10T18:28:35.683Z,5.00
2018-12-10T18:31:02.043Z,5.00
2018-12-10T18:33:28.923Z,4.90
2018-12-10T18:35:55.721Z,5.00
2018-12-10T18:38:21.970Z,4.90
2018-12-10T18:40:48.223Z,5.00
2018-12-10T18:43:14.489Z,5.00
2018-12-10T18:45:40.750Z,5.00
2018-12-10T18:48:07.028Z,5.00
2018-12-10T18:50:33.301Z,5.00
2018-12-10T18:52:59.633Z,5.00
2018-12-10T18:55:25.897Z,5.00
2018-12-10T18:57:52.142Z,4.90
2018-12-10T19:00:18.417Z,4.90
2018-12-10T19:02:44.721Z,4.90
2018-12-10T19:05:11.066Z,4.80
2018-12-10T19:07:37.397Z,4.90
2018-12-10T19:10:05.270Z,4.80
2018-12-10T19:12:31.871Z,4.80
2018-12-10T19:14:58.701Z,4.80
2018-12-10T19:17:25.124Z,4.80
2018-12-10T19:19:51.422Z,4.80
2018-12-10T19:22:17.714Z,4.80
2018-12-10T19:24:43.953Z,4.80
2018-12-10T19:27:10.292Z,4.80
2018-12-10T19:29:36.586Z,4.80
2018-12-10T19:32:03.065Z,4.80
2018-12-10T19:34:29.318Z,4.80
2018-12-10T19:36:55.573Z,4.70
2018-12-10T19:39:21.925Z,4.70
2018-12-10T19:41:48.197Z,4.60
2018-12-10T19:44:14.439Z,4.60
2018-12-10T19:46:40.709Z,4.50
2018-12-10T19:49:06.989Z,4.50
2018-12-10T19:51:33.240Z,4.50
2018-12-10T19:53:59.437Z,4.50
2018-12-10T19:56:25.762Z,4.40
2018-12-10T19:58:52.033Z,4.40
2018-12-10T20:01:18.335Z,4.40
2018-12-10T20:03:44.602Z,4.40
2018-12-10T20:06:12.666Z,4.40
2018-12-10T20:08:39.042Z,4.40
2018-12-10T20:11:05.605Z,4.30
2018-12-10T20:13:31.898Z,4.30
2018-12-10T20:15:58.165Z,4.40
2018-12-10T20:18:24.417Z,4.40
2018-12-10T20:20:50.777Z,4.30
2018-12-10T20:23:17.034Z,4.30
2018-12-10T20:25:43.291Z,4.30
2018-12-10T20:28:09.662Z,4.30
2018-12-10T20:30:35.914Z,4.30
2018-12-10T20:33:02.348Z,4.40
2018-12-10T20:35:28.705Z,4.40
2018-12-10T20:37:54.956Z,4.40
2018-12-10T20:40:21.338Z,4.30
2018-12-10T20:42:47.572Z,4.40
2018-12-10T20:45:13.829Z,4.40
2018-12-10T20:47:40.082Z,4.40
2018-12-10T20:50:06.378Z,4.40
2018-12-10T20:52:32.543Z,4.40
2018-12-10T20:54:58.730Z,4.40
2018-12-10T20:57:25.121Z,4.30
2018-12-10T20:59:51.382Z,4.40
2018-12-10T21:02:17.634Z,4.40
2018-12-10T21:04:44.013Z,4.40
2018-12-10T21:07:10.245Z,4.50
2018-12-10T21:09:36.493Z,4.50
2018-12-10T21:12:03.510Z,4.50
2018-12-10T21:14:29.754Z,4.50
2018-12-10T21:16:56.053Z,4.60
2018-12-10T21:19:22.434Z,4.60
2018-12-10T21:21:48.739Z,4.60
2018-12-10T21:24:14.990Z,4.70
2018-12-10T21:26:41.251Z,4.60
2018-12-10T21:29:07.510Z,4.70
2018-12-10T21:31:33.777Z,4.60
2018-12-10T21:34:00.142Z,4.70
2018-12-10T21:36:26.409Z,4.70
2018-12-10T21:38:59.665Z,4.70
2018-12-10T21:41:25.920Z,4.80
2018-12-10T21:43:52.554Z,4.80
2018-12-10T21:46:18.850Z,4.80
2018-12-10T21:48:46.050Z,4.80
2018-12-10T21:51:12.406Z,4.80
2018-12-10T21:53:38.727Z,4.90
2018-12-10T21:56:05.146Z,5.00
2018-12-10T21:58:31.407Z,5.00
2018-12-10T22:00:57.581Z,4.90
2018-12-10T22:03:23.966Z,4.90
2018-12-10T22:05:50.225Z,5.00
2018-12-10T22:08:16.477Z,5.00
2018-12-10T22:10:42.726Z,5.00
2018-12-10T22:13:08.977Z,5.00
2018-12-10T22:15:35.467Z,5.00
2018-12-10T22:18:01.764Z,5.00
2018-12-10T22:20:28.093Z,5.00
2018-12-10T22:22:54.474Z,5.00
2018-12-10T22:25:20.721Z,5.00
2018-12-10T22:27:47.059Z,5.00
2018-12-10T22:30:13.336Z,5.00
2018-12-10T22:32:39.649Z,5.00
2018-12-10T22:35:06.139Z,5.00
2018-12-10T22:37:32.614Z,5.00
2018-12-10T22:39:58.999Z,5.00
2018-12-10T22:42:25.272Z,5.00
2018-12-10T22:44:51.529Z,5.00
2018-12-10T22:47:17.777Z,5.00
2018-12-10T22:49:44.061Z,5.10
2018-12-10T22:52:10.337Z,5.10
2018-12-10T22:54:36.645Z,5.10
2018-12-10T22:57:02.905Z,5.20
2018-12-10T22:59:29.163Z,5.10
2018-12-10T23:01:55.742Z,5.10
2018-12-10T23:04:21.913Z,5.10
2018-12-10T23:06:48.162Z,5.20
2018-12-10T23:09:14.426Z,5.20
2018-12-10T23:11:40.749Z,5.30
2018-12-10T23:14:07.013Z,5.20
2018-12-10T23:16:33.385Z,5.20
2018-12-10T23:18:59.677Z,5.20
2018-12-10T23:21:26.053Z,5.20
2018-12-10T23:23:59.155Z,5.20
2018-12-10T23:26:25.409Z,5.20
2018-12-10T23:28:51.785Z,5.20
2018-12-10T23:31:18.033Z,5.30
2018-12-10T23:33:44.285Z,5.30
2018-12-10T23:36:10.554Z,5.20
2018-12-10T23:38:36.805Z,5.20
2018-12-10T23:41:03.084Z,5.20
2018-12-10T23:43:29.330Z,5.20
2018-12-10T23:45:55.593Z,5.20
2018-12-10T23:48:21.850Z,5.10
2018-12-10T23:50:48.119Z,5.20
2018-12-10T23:53:14.380Z,5.20
2018-12-10T23:55:40.637Z,5.10
2018-12-10T23:58:06.873Z,5.00
